createdAt,value
2017-09-28T00:01:35.746Z,25.67
2017-09-28T00:04:03.303Z,27.60
2017-09-28T00:06:30.906Z,26.63
2017-09-28T00:08:59.225Z,26.20
2017-09-28T00:11:26.782Z,26.10
2017-09-28T00:13:54.366Z,25.43
2017-09-28T00:16:21.922Z,25.57
2017-09-28T00:18:49.479Z,26.60
2017-09-28T00:21:17.046Z,26.73
2017-09-28T00:23:44.601Z,27.10
2017-09-28T00:26:12.182Z,27.43
2017-09-28T00:28:39.745Z,26.80
2017-09-28T00:31:07.302Z,27.27
2017-09-28T00:33:34.862Z,25.90
2017-09-28T00:36:02.423Z,26.03
2017-09-28T00:38:30.778Z,27.30
2017-09-28T00:40:58.337Z,26.77
2017-09-28T00:43:25.899Z,26.60
2017-09-28T00:45:53.465Z,25.73
2017-09-28T00:48:21.022Z,25.80
2017-09-28T00:50:48.613Z,26.70
2017-09-28T00:53:16.933Z,26.73
2017-09-28T00:55:44.494Z,25.20
2017-09-28T00:58:12.057Z,26.23
2017-09-28T01:00:39.630Z,25.50
2017-09-28T01:03:07.220Z,26.27
2017-09-28T01:05:35.543Z,26.00
2017-09-28T01:08:03.098Z,26.30
2017-09-28T01:10:30.653Z,26.20
2017-09-28T01:12:58.212Z,26.47
2017-09-28T01:15:25.801Z,25.60
2017-09-28T01:17:53.354Z,26.40
2017-09-28T01:20:20.912Z,25.43
2017-09-28T01:22:48.473Z,24.40
2017-09-28T01:25:16.035Z,26.60
2017-09-28T01:27:43.621Z,24.90
2017-09-28T01:30:11.942Z,25.70
2017-09-28T01:32:39.500Z,26.00
2017-09-28T01:35:07.060Z,26.80
2017-09-28T01:37:34.620Z,25.43
2017-09-28T01:40:02.202Z,26.10
2017-09-28T01:42:29.769Z,25.93
2017-09-28T01:44:57.357Z,26.37
2017-09-28T01:47:25.684Z,27.50
2017-09-28T01:49:53.250Z,26.80
2017-09-28T01:52:20.830Z,25.77
2017-09-28T01:54:48.387Z,27.00
2017-09-28T01:57:15.946Z,26.63
2017-09-28T01:59:43.498Z,26.00
2017-09-28T02:02:11.055Z,26.67
2017-09-28T02:04:38.637Z,26.57
2017-09-28T02:07:06.194Z,25.77
2017-09-28T02:09:34.543Z,27.00
2017-09-28T02:12:02.101Z,26.50
2017-09-28T02:14:29.658Z,25.40
2017-09-28T02:16:57.238Z,25.60
2017-09-28T02:19:24.800Z,26.27
2017-09-28T02:21:52.368Z,26.20
2017-09-28T02:24:19.924Z,26.97
2017-09-28T02:26:47.478Z,26.70
2017-09-28T02:29:15.067Z,27.37
2017-09-28T02:31:42.631Z,26.63
2017-09-28T02:34:10.192Z,26.50
2017-09-28T02:36:37.752Z,27.10
2017-09-28T02:39:05.310Z,26.13
2017-09-28T02:41:32.890Z,26.13
2017-09-28T02:44:00.453Z,25.70
2017-09-28T02:46:28.018Z,27.03
2017-09-28T02:48:55.583Z,27.17
2017-09-28T02:51:23.141Z,26.60
2017-09-28T02:53:50.742Z,26.17
2017-09-28T02:56:19.065Z,26.73
2017-09-28T02:58:46.629Z,26.30
2017-09-28T03:01:14.187Z,26.20
2017-09-28T03:03:41.746Z,28.53
2017-09-28T03:06:09.327Z,27.70
2017-09-28T03:08:36.880Z,27.00
2017-09-28T03:11:04.475Z,27.13
2017-09-28T03:13:32.798Z,26.37
2017-09-28T03:16:00.358Z,27.60
2017-09-28T03:18:27.942Z,27.97
2017-09-28T03:20:55.494Z,27.27
2017-09-28T03:23:23.056Z,26.40
2017-09-28T03:25:50.614Z,25.93
2017-09-28T03:28:18.169Z,26.20
2017-09-28T03:30:45.766Z,26.17
2017-09-28T03:33:14.086Z,26.23
2017-09-28T03:35:41.642Z,26.63
2017-09-28T03:38:09.199Z,26.90
2017-09-28T03:40:36.759Z,27.60
2017-09-28T03:43:04.337Z,26.93
2017-09-28T03:45:31.920Z,25.77
2017-09-28T03:47:59.483Z,26.50
2017-09-28T03:50:27.819Z,27.10
2017-09-28T03:52:55.392Z,26.00
2017-09-28T03:55:22.974Z,27.03
2017-09-28T03:57:50.525Z,26.80
2017-09-28T04:00:18.078Z,26.63
2017-09-28T04:02:45.632Z,26.57
2017-09-28T04:05:13.186Z,27.97
2017-09-28T04:07:40.770Z,26.07
2017-09-28T04:10:08.356Z,26.60
2017-09-28T04:12:36.694Z,27.00
2017-09-28T04:15:04.250Z,27.60
2017-09-28T04:17:31.818Z,27.50
2017-09-28T04:19:59.405Z,27.90
2017-09-28T04:22:27.721Z,27.10
2017-09-28T04:24:55.282Z,27.57
2017-09-28T04:27:22.841Z,27.00
2017-09-28T04:29:50.411Z,26.23
2017-09-28T04:32:17.992Z,27.53
2017-09-28T04:34:46.325Z,25.23
2017-09-28T04:37:13.889Z,26.50
2017-09-28T04:39:41.461Z,27.17
2017-09-28T04:42:09.015Z,29.10
2017-09-28T04:44:37.003Z,27.03
2017-09-28T04:47:04.566Z,27.43
2017-09-28T04:49:32.126Z,27.07
2017-09-28T04:51:59.678Z,26.17
2017-09-28T04:54:27.233Z,28.40
2017-09-28T04:56:54.813Z,27.70
2017-09-28T04:59:22.370Z,26.50
2017-09-28T05:01:49.922Z,26.07
2017-09-28T05:04:17.482Z,27.23
2017-09-28T05:06:45.042Z,29.60
2017-09-28T05:09:12.631Z,27.30
2017-09-28T05:11:40.202Z,27.57
2017-09-28T05:14:07.758Z,27.40
2017-09-28T05:16:35.317Z,27.53
2017-09-28T05:19:02.873Z,27.40
2017-09-28T05:21:30.486Z,26.90
2017-09-28T05:23:58.042Z,28.20
2017-09-28T05:26:25.594Z,27.70
2017-09-28T05:28:53.151Z,26.90
2017-09-28T05:31:20.785Z,28.37
2017-09-28T05:33:48.353Z,27.70
2017-09-28T05:36:15.918Z,27.27
2017-09-28T05:38:43.486Z,27.80
2017-09-28T05:41:11.043Z,28.00
2017-09-28T05:43:38.761Z,27.70
2017-09-28T05:46:07.098Z,27.97
2017-09-28T05:48:34.654Z,31.13
2017-09-28T05:51:02.246Z,27.40
2017-09-28T05:53:30.566Z,27.30
2017-09-28T05:55:58.120Z,28.80
2017-09-28T05:58:25.704Z,28.30
2017-09-28T06:00:53.275Z,29.60
2017-09-28T06:03:21.177Z,28.93
2017-09-28T06:05:49.847Z,29.67
2017-09-28T06:08:18.170Z,30.27
2017-09-28T06:10:45.941Z,28.90
2017-09-28T06:13:13.526Z,30.33
2017-09-28T06:15:41.431Z,30.30
2017-09-28T06:18:10.113Z,33.03
2017-09-28T06:20:38.430Z,31.33
2017-09-28T06:23:05.982Z,32.70
2017-09-28T06:25:33.559Z,33.20
2017-09-28T06:28:01.175Z,34.03
2017-09-28T06:30:29.006Z,33.53
2017-09-28T06:32:56.566Z,35.80
2017-09-28T06:35:24.136Z,37.97
2017-09-28T06:37:52.486Z,38.57
2017-09-28T06:40:20.318Z,37.10
2017-09-28T06:42:47.884Z,40.07
2017-09-28T06:45:15.444Z,38.50
2017-09-28T06:47:43.003Z,40.20
2017-09-28T06:50:11.716Z,39.23
2017-09-28T06:52:39.561Z,39.60
2017-09-28T06:55:07.118Z,40.27
2017-09-28T06:57:34.862Z,42.23
2017-09-28T07:00:02.715Z,40.90
2017-09-28T07:02:31.070Z,42.23
2017-09-28T07:04:59.591Z,40.50
2017-09-28T07:07:27.458Z,45.03
2017-09-28T07:09:55.179Z,42.10
2017-09-28T07:12:22.778Z,53.33
2017-09-28T07:14:50.381Z,41.97
2017-09-28T07:17:17.937Z,40.30
2017-09-28T07:19:45.502Z,40.57
2017-09-28T07:22:13.053Z,43.20
2017-09-28T07:24:40.610Z,41.10
2017-09-28T07:27:08.198Z,41.73
2017-09-28T07:29:36.521Z,41.80
2017-09-28T07:32:04.075Z,40.93
2017-09-28T07:34:31.630Z,42.30
2017-09-28T07:36:59.193Z,42.00
2017-09-28T07:39:26.782Z,41.43
2017-09-28T07:41:54.347Z,41.70
2017-09-28T07:44:21.914Z,41.47
2017-09-28T07:46:49.470Z,42.00
2017-09-28T07:49:17.031Z,41.13
2017-09-28T07:51:44.630Z,41.70
2017-09-28T07:54:12.193Z,40.87
2017-09-28T07:56:39.750Z,42.13
2017-09-28T07:59:07.306Z,38.80
2017-09-28T08:01:34.861Z,40.03
2017-09-28T08:04:03.050Z,41.27
2017-09-28T08:06:30.600Z,38.20
2017-09-28T08:08:58.163Z,39.70
2017-09-28T08:11:25.722Z,39.87
2017-09-28T08:13:53.277Z,39.00
2017-09-28T08:16:20.858Z,39.37
2017-09-28T08:18:48.410Z,40.60
2017-09-28T08:21:15.976Z,38.83
2017-09-28T08:23:43.534Z,39.97
2017-09-28T08:26:11.087Z,41.03
2017-09-28T08:28:38.690Z,40.60
2017-09-28T08:31:06.254Z,40.30
2017-09-28T08:33:33.814Z,42.63
2017-09-28T08:36:01.369Z,42.30
2017-09-28T08:38:28.937Z,52.30
2017-09-28T08:40:56.530Z,42.27
2017-09-28T08:43:24.087Z,43.20
2017-09-28T08:45:51.645Z,41.17
2017-09-28T08:48:19.210Z,41.57
2017-09-28T08:50:46.772Z,38.97
2017-09-28T08:53:14.361Z,40.63
2017-09-28T08:55:41.915Z,40.70
2017-09-28T08:58:09.466Z,40.73
2017-09-28T09:00:37.021Z,38.93
2017-09-28T09:03:04.590Z,40.50
2017-09-28T09:05:32.169Z,39.80
2017-09-28T09:07:59.730Z,39.73
2017-09-28T09:10:27.290Z,38.37
2017-09-28T09:12:55.622Z,39.47
2017-09-28T09:15:23.238Z,39.77
2017-09-28T09:17:50.825Z,39.73
2017-09-28T09:20:18.383Z,37.10
2017-09-28T09:22:46.705Z,40.17
2017-09-28T09:25:14.262Z,40.00
2017-09-28T09:27:41.814Z,39.50
2017-09-28T09:30:09.409Z,39.20
2017-09-28T09:32:36.982Z,38.93
2017-09-28T09:35:05.300Z,36.70
2017-09-28T09:37:32.859Z,37.90
2017-09-28T09:40:00.420Z,37.07
2017-09-28T09:42:28.003Z,51.87
2017-09-28T09:44:55.570Z,38.83
2017-09-28T09:47:23.123Z,36.90
2017-09-28T09:49:50.681Z,36.80
2017-09-28T09:52:18.234Z,36.40
2017-09-28T09:54:45.816Z,34.63
2017-09-28T09:57:13.374Z,34.97
2017-09-28T09:59:40.930Z,34.27
2017-09-28T10:02:08.491Z,33.57
2017-09-28T10:04:36.053Z,33.50
2017-09-28T10:07:15.665Z,32.93
2017-09-28T10:09:49.829Z,32.17
2017-09-28T10:12:26.226Z,32.40
2017-09-28T10:15:02.019Z,32.00
2017-09-28T10:17:29.608Z,31.40
2017-09-28T10:19:57.929Z,31.13
2017-09-28T10:22:25.486Z,32.00
2017-09-28T10:24:53.042Z,31.20
2017-09-28T10:27:20.647Z,31.20
2017-09-28T10:29:49.006Z,31.23
2017-09-28T10:32:16.565Z,30.70
2017-09-28T10:34:44.123Z,30.47
2017-09-28T10:37:11.686Z,30.80
2017-09-28T10:39:39.244Z,29.80
2017-09-28T10:42:06.830Z,31.43
2017-09-28T10:44:35.154Z,29.47
2017-09-28T10:47:02.714Z,30.50
2017-09-28T10:49:30.271Z,30.60
2017-09-28T10:51:57.831Z,30.07
2017-09-28T10:54:25.427Z,30.40
2017-09-28T10:56:53.040Z,30.80
2017-09-28T10:59:20.594Z,28.67
2017-09-28T11:01:48.152Z,29.60
2017-09-28T11:04:15.713Z,29.67
2017-09-28T11:06:43.305Z,29.87
2017-09-28T11:09:10.864Z,29.70
2017-09-28T11:11:38.423Z,30.90
2017-09-28T11:14:05.979Z,28.50
2017-09-28T11:16:33.731Z,29.90
2017-09-28T11:19:01.314Z,28.67
2017-09-28T11:21:28.874Z,29.07
2017-09-28T11:23:56.434Z,28.20
2017-09-28T11:26:23.994Z,27.13
2017-09-28T11:28:51.550Z,29.00
2017-09-28T11:31:19.137Z,28.27
2017-09-28T11:33:47.481Z,29.07
2017-09-28T11:36:15.037Z,29.40
2017-09-28T11:38:42.866Z,27.30
2017-09-28T11:41:10.674Z,27.83
2017-09-28T11:43:38.326Z,28.48
2017-09-28T11:46:05.974Z,27.17
2017-09-28T11:48:33.806Z,27.17
2017-09-28T11:51:01.365Z,28.50
2017-09-28T11:53:28.933Z,27.15
2017-09-28T11:55:56.523Z,27.05
2017-09-28T11:58:24.078Z,27.62
2017-09-28T12:00:51.947Z,28.87
2017-09-28T12:03:19.581Z,26.90
2017-09-28T12:05:47.443Z,27.62
2017-09-28T12:08:15.239Z,26.87
2017-09-28T12:10:43.074Z,27.23
2017-09-28T12:13:10.627Z,27.25
2017-09-28T12:15:39.450Z,26.52
2017-09-28T12:18:07.012Z,26.65
2017-09-28T12:20:35.131Z,27.02
2017-09-28T12:23:03.462Z,26.08
2017-09-28T12:25:31.464Z,26.12
2017-09-28T12:27:59.387Z,26.42
2017-09-28T12:30:27.302Z,26.00
2017-09-28T12:32:55.010Z,25.43
2017-09-28T12:35:23.137Z,24.90
2017-09-28T12:37:50.961Z,24.75
2017-09-28T12:40:19.023Z,26.00
2017-09-28T12:42:46.902Z,26.55
2017-09-28T12:45:15.091Z,26.75
2017-09-28T12:47:42.836Z,25.65
2017-09-28T12:50:10.646Z,28.12
2017-09-28T12:52:39.757Z,26.50
2017-09-28T12:55:08.414Z,25.42
2017-09-28T12:57:35.998Z,25.20
2017-09-28T13:00:04.318Z,25.23
2017-09-28T13:02:31.879Z,25.88
2017-09-28T13:04:59.435Z,34.30
2017-09-28T13:07:26.994Z,25.88
2017-09-28T13:09:54.588Z,27.20
2017-09-28T13:12:22.146Z,27.98
2017-09-28T13:14:49.730Z,26.98
2017-09-28T13:17:18.059Z,27.13
2017-09-28T13:19:45.623Z,27.60
2017-09-28T13:22:13.185Z,25.65
2017-09-28T13:24:40.743Z,24.70
2017-09-28T13:27:08.326Z,25.50
2017-09-28T13:29:35.887Z,24.85
2017-09-28T13:32:03.442Z,24.67
2017-09-28T13:34:31.022Z,25.48
2017-09-28T13:36:59.414Z,24.92
2017-09-28T13:39:27.772Z,25.23
2017-09-28T13:41:55.326Z,24.87
2017-09-28T13:44:22.906Z,25.17
2017-09-28T13:46:51.237Z,25.42
2017-09-28T13:49:18.797Z,25.17
2017-09-28T13:51:46.382Z,26.20
2017-09-28T13:54:13.938Z,25.20
2017-09-28T13:56:41.496Z,25.17
2017-09-28T13:59:09.331Z,27.40
2017-09-28T14:01:41.274Z,25.48
2017-09-28T14:04:09.054Z,26.42
2017-09-28T14:06:36.640Z,25.42
2017-09-28T14:09:04.962Z,25.90
2017-09-28T14:11:32.523Z,25.93
2017-09-28T14:14:00.210Z,25.03
2017-09-28T14:16:27.962Z,25.00
2017-09-28T14:18:56.134Z,26.40
2017-09-28T14:21:24.035Z,25.63
2017-09-28T14:23:51.601Z,26.17
2017-09-28T14:26:19.161Z,25.53
2017-09-28T14:28:46.822Z,25.60
2017-09-28T14:31:14.386Z,27.47
2017-09-28T14:33:42.246Z,25.33
2017-09-28T14:36:10.275Z,24.83
2017-09-28T14:38:37.829Z,25.03
2017-09-28T14:41:05.434Z,26.07
2017-09-28T14:43:32.995Z,25.20
2017-09-28T14:46:01.608Z,25.07
2017-09-28T14:48:30.000Z,25.10
2017-09-28T14:50:57.925Z,25.30
2017-09-28T14:53:26.050Z,24.97
2017-09-28T14:55:53.630Z,25.30
2017-09-28T14:58:22.577Z,25.47
2017-09-28T15:00:50.919Z,31.53
2017-09-28T15:03:18.626Z,27.20
2017-09-28T15:05:47.009Z,27.80
2017-09-28T15:08:15.350Z,26.27
2017-09-28T15:10:43.047Z,25.80
2017-09-28T15:13:11.374Z,24.60
2017-09-28T15:15:39.343Z,25.17
2017-09-28T15:18:07.466Z,26.17
2017-09-28T15:20:35.339Z,25.03
2017-09-28T15:23:03.338Z,25.10
2017-09-28T15:25:31.242Z,24.97
2017-09-28T15:27:58.945Z,24.87
2017-09-28T15:30:26.917Z,24.30
2017-09-28T15:32:54.889Z,23.70
2017-09-28T15:35:22.452Z,25.70
2017-09-28T15:37:50.012Z,26.90
2017-09-28T15:40:17.575Z,24.63
2017-09-28T15:42:45.171Z,25.30
2017-09-28T15:45:12.733Z,25.43
2017-09-28T15:47:40.296Z,25.60
2017-09-28T15:50:07.858Z,25.30
2017-09-28T15:52:35.442Z,26.03
2017-09-28T15:55:03.978Z,25.80
2017-09-28T15:57:31.538Z,25.50
2017-09-28T15:59:59.094Z,25.10
2017-09-28T16:02:26.666Z,25.50
2017-09-28T16:04:54.230Z,27.33
2017-09-28T16:07:21.938Z,36.70
2017-09-28T16:09:49.491Z,25.77
2017-09-28T16:12:17.061Z,25.60
2017-09-28T16:14:44.628Z,24.73
2017-09-28T16:17:12.189Z,26.60
2017-09-28T16:19:39.782Z,25.63
2017-09-28T16:22:07.341Z,24.90
2017-09-28T16:24:34.913Z,24.70
2017-09-28T16:27:02.467Z,25.80
2017-09-28T16:29:30.027Z,26.03
2017-09-28T16:31:57.610Z,25.50
2017-09-28T16:34:25.935Z,25.93
2017-09-28T16:36:53.491Z,26.80
2017-09-28T16:39:21.045Z,26.37
2017-09-28T16:41:48.606Z,28.00
2017-09-28T16:44:16.186Z,28.70
2017-09-28T16:46:43.763Z,26.17
2017-09-28T16:49:11.322Z,27.30
2017-09-28T16:51:38.874Z,25.47
2017-09-28T16:54:06.445Z,26.20
2017-09-28T16:56:34.837Z,25.17
2017-09-28T16:59:03.158Z,25.80
2017-09-28T17:01:30.743Z,26.40
2017-09-28T17:03:58.313Z,26.60
2017-09-28T17:06:26.646Z,26.80
2017-09-28T17:08:54.241Z,26.40
2017-09-28T17:11:21.803Z,27.30
2017-09-28T17:13:50.134Z,27.83
2017-09-28T17:16:17.697Z,28.13
2017-09-28T17:18:45.256Z,27.90
2017-09-28T17:21:12.867Z,28.40
2017-09-28T17:23:40.434Z,27.23
2017-09-28T17:26:08.761Z,28.50
2017-09-28T17:28:36.328Z,28.00
2017-09-28T17:31:03.882Z,28.17
2017-09-28T17:33:31.462Z,27.03
2017-09-28T17:35:59.017Z,27.30
2017-09-28T17:38:26.577Z,27.77
2017-09-28T17:40:54.138Z,27.33
2017-09-28T17:43:21.698Z,28.60
2017-09-28T17:45:49.294Z,32.13
2017-09-28T17:48:17.614Z,29.20
2017-09-28T17:50:45.171Z,27.70
2017-09-28T17:53:12.736Z,31.80
2017-09-28T17:55:40.290Z,27.67
2017-09-28T17:58:07.874Z,28.50
2017-09-28T18:00:35.429Z,27.30
2017-09-28T18:03:03.023Z,27.70
2017-09-28T18:05:31.346Z,28.73
2017-09-28T18:07:58.910Z,29.37
2017-09-28T18:10:26.516Z,28.17
2017-09-28T18:12:54.838Z,28.07
2017-09-28T18:15:22.406Z,28.43
2017-09-28T18:17:49.967Z,29.60
2017-09-28T18:20:17.527Z,29.20
2017-09-28T18:22:45.111Z,28.53
2017-09-28T18:25:12.665Z,28.73
2017-09-28T18:27:40.228Z,29.40
2017-09-28T18:30:07.786Z,28.20
2017-09-28T18:32:35.351Z,28.57
2017-09-28T18:35:02.951Z,28.23
2017-09-28T18:37:30.510Z,29.13
2017-09-28T18:39:58.062Z,28.67
2017-09-28T18:42:25.622Z,29.10
2017-09-28T18:44:53.188Z,27.80
2017-09-28T18:47:20.774Z,28.30
2017-09-28T18:49:49.118Z,30.07
2017-09-28T18:52:16.678Z,32.27
2017-09-28T18:54:44.239Z,30.00
2017-09-28T18:57:11.815Z,29.40
2017-09-28T18:59:39.403Z,29.30
2017-09-28T19:02:06.959Z,28.40
2017-09-28T19:04:34.554Z,29.20
2017-09-28T19:07:02.887Z,32.40
2017-09-28T19:09:30.450Z,31.27
2017-09-28T19:11:58.033Z,29.47
2017-09-28T19:14:25.586Z,30.83
2017-09-28T19:16:53.147Z,30.17
2017-09-28T19:19:20.715Z,27.97
2017-09-28T19:21:49.045Z,31.40
2017-09-28T19:24:16.631Z,28.80
2017-09-28T19:26:44.190Z,28.10
2017-09-28T19:29:12.513Z,27.67
2017-09-28T19:31:40.079Z,29.97
2017-09-28T19:34:07.642Z,29.53
2017-09-28T19:36:35.232Z,30.93
2017-09-28T19:39:02.793Z,32.53
2017-09-28T19:41:30.350Z,30.20
2017-09-28T19:43:57.906Z,30.37
2017-09-28T19:46:25.465Z,28.77
2017-09-28T19:48:53.042Z,28.90
2017-09-28T19:51:20.611Z,30.40
2017-09-28T19:53:48.166Z,28.67
2017-09-28T19:56:15.730Z,28.67
2017-09-28T19:58:43.331Z,28.00
2017-09-28T20:01:10.911Z,28.27
2017-09-28T20:03:38.494Z,29.27
2017-09-28T20:06:06.062Z,30.10
2017-09-28T20:08:33.628Z,28.77
2017-09-28T20:11:01.186Z,28.97
2017-09-28T20:13:28.778Z,26.97
2017-09-28T20:15:56.338Z,28.83
2017-09-28T20:18:23.889Z,28.37
2017-09-28T20:20:52.209Z,29.30
2017-09-28T20:23:19.774Z,27.90
2017-09-28T20:25:47.366Z,30.63
2017-09-28T20:28:15.692Z,29.17
2017-09-28T20:30:43.247Z,28.40
2017-09-28T20:33:10.816Z,29.30
2017-09-28T20:35:38.382Z,28.03
2017-09-28T20:38:05.970Z,30.20
2017-09-28T20:40:33.527Z,29.10
2017-09-28T20:43:01.086Z,28.80
2017-09-28T20:45:28.644Z,29.40
2017-09-28T20:47:56.202Z,29.40
2017-09-28T20:50:23.793Z,28.70
2017-09-28T20:52:51.359Z,29.00
2017-09-28T20:55:18.909Z,28.90
2017-09-28T20:57:47.226Z,28.20
2017-09-28T21:00:14.779Z,27.80
2017-09-28T21:02:42.359Z,28.67
2017-09-28T21:05:09.954Z,29.00
2017-09-28T21:07:38.292Z,29.70
2017-09-28T21:10:05.850Z,30.83
2017-09-28T21:12:33.415Z,30.60
2017-09-28T21:15:00.993Z,30.53
2017-09-28T21:17:28.554Z,30.20
2017-09-28T21:19:56.110Z,29.40
2017-09-28T21:22:23.670Z,30.83
2017-09-28T21:24:51.226Z,29.93
2017-09-28T21:27:18.811Z,30.40
2017-09-28T21:29:47.135Z,30.90
2017-09-28T21:32:14.694Z,29.33
2017-09-28T21:34:42.258Z,30.80
2017-09-28T21:37:09.818Z,30.07
2017-09-28T21:39:37.398Z,29.33
2017-09-28T21:42:04.949Z,30.10
2017-09-28T21:44:32.501Z,31.27
2017-09-28T21:47:00.062Z,31.40
2017-09-28T21:49:27.722Z,31.90
2017-09-28T21:51:55.284Z,32.00
2017-09-28T21:54:22.880Z,32.13
2017-09-28T21:56:51.206Z,31.90
2017-09-28T21:59:18.770Z,33.10
2017-09-28T22:01:46.327Z,33.30
2017-09-28T22:04:13.882Z,31.83
2017-09-28T22:06:41.465Z,33.67
2017-09-28T22:09:09.019Z,34.47
2017-09-28T22:11:36.585Z,32.57
2017-09-28T22:14:04.141Z,33.73
2017-09-28T22:16:31.707Z,32.60
2017-09-28T22:18:59.297Z,32.50
2017-09-28T22:21:26.855Z,33.57
2017-09-28T22:23:54.419Z,34.00
2017-09-28T22:26:21.974Z,32.30
2017-09-28T22:28:49.533Z,33.67
2017-09-28T22:31:17.123Z,33.00
2017-09-28T22:33:44.677Z,32.70
2017-09-28T22:36:12.234Z,33.63
2017-09-28T22:38:39.791Z,34.63
2017-09-28T22:41:07.352Z,32.93
2017-09-28T22:43:34.934Z,32.50
2017-09-28T22:46:02.497Z,33.27
2017-09-28T22:48:30.046Z,32.00
2017-09-28T22:50:57.609Z,34.20
2017-09-28T22:53:25.182Z,33.90
2017-09-28T22:55:52.770Z,33.90
2017-09-28T22:58:21.098Z,33.60
2017-09-28T23:00:48.661Z,31.90
2017-09-28T23:03:16.219Z,33.13
2017-09-28T23:05:43.780Z,31.87
2017-09-28T23:37:03.989Z,32.70
2017-09-28T23:39:32.309Z,32.87
2017-09-28T23:41:59.869Z,32.33
2017-09-28T23:44:27.427Z,34.47
2017-09-28T23:46:54.987Z,33.90
2017-09-28T23:49:22.578Z,33.00
2017-09-28T23:51:50.134Z,32.80
2017-09-28T23:54:17.690Z,31.53
2017-09-28T23:56:45.355Z,34.57
2017-09-28T23:59:12.914Z,33.10
